Time;durP1;ratioP1;P1;durP2;ratioP2;P2;SDS_P1;SDS_P2;PMS_P1;PMS_P2;Temp;Humidity;BMP_temperature;BMP_pressure;BME280_temperature;BME280_humidity;BME280_pressure;Samples;Min_cycle;Max_cycle;Signal;HPM_P1;HPM_P2
2022/08/01 00:00:21;;;;;;;;;2.00;2.00;;;;;25.74;48.67;101387.38;4990030;27;45771;-68
2022/08/01 00:02:46;;;;;;;;;1.50;1.00;;;;;25.67;48.95;101396.69;4972207;27;45453;-68
2022/08/01 00:05:12;;;;;;;;;1.25;1.25;;;;;25.63;48.78;101404.03;4987628;28;45664;-68
2022/08/01 00:07:38;;;;;;;;;3.25;2.00;;;;;25.27;48.76;101350.41;4979737;27;45363;-68
2022/08/01 00:10:09;;;;;;;;;2.00;2.00;;;;;25.56;48.71;101411.53;4976953;27;45494;-69
2022/08/01 00:12:35;;;;;;;;;1.00;1.00;;;;;25.64;48.21;101405.75;4984057;27;45456;-69
2022/08/01 00:15:02;;;;;;;;;1.00;1.00;;;;;25.57;49.17;101401.66;4970737;28;45704;-68
2022/08/01 00:17:27;;;;;;;;;1.00;1.00;;;;;25.45;49.84;101405.81;4986282;27;45558;-68
2022/08/01 00:19:53;;;;;;;;;1.00;1.00;;;;;25.40;49.17;101399.81;4982519;27;46521;-68
2022/08/01 00:22:18;;;;;;;;;1.00;1.00;;;;;25.48;48.68;101397.59;4981008;27;45643;-68
2022/08/01 00:24:44;;;;;;;;;1.00;1.00;;;;;25.56;48.98;101391.88;4985454;27;45393;-69
2022/08/01 00:27:09;;;;;;;;;1.00;1.00;;;;;25.57;49.44;101389.09;4990208;27;45487;-68
2022/08/01 00:30:39;;;;;;;;;1.00;1.00;;;;;25.52;48.80;101390.28;4991266;27;45980;-68
2022/08/01 00:33:32;;;;;;;;;1.00;0.00;;;;;25.51;48.69;101365.28;4926849;28;45709;-68
2022/08/01 00:35:59;;;;;;;;;0.25;0.25;;;;;25.49;49.54;101385.97;4933960;28;45592;-68
2022/08/01 00:38:25;;;;;;;;;1.50;1.00;;;;;25.46;49.48;101385.22;4931665;28;45439;-68
2022/08/01 00:40:50;;;;;;;;;1.00;1.00;;;;;25.39;49.57;101379.31;4946112;28;46021;-67
2022/08/01 00:43:16;;;;;;;;;0.75;0.75;;;;;25.35;49.70;101380.41;4985857;27;45699;-67
2022/08/01 00:45:42;;;;;;;;;0.50;0.50;;;;;25.29;49.58;101368.16;4980864;27;45815;-68
2022/08/01 00:48:07;;;;;;;;;0.25;0.25;;;;;25.49;49.09;101379.72;4970243;27;45537;-68
2022/08/01 00:50:34;;;;;;;;;1.00;1.00;;;;;25.45;48.97;101367.41;4970266;28;46433;-68
2022/08/01 00:53:00;;;;;;;;;1.00;0.75;;;;;25.52;48.13;101367.00;4968813;28;46206;-67
2022/08/01 00:55:27;;;;;;;;;2.00;1.00;;;;;25.64;48.28;101376.25;4955522;28;45541;-68
2022/08/01 00:57:53;;;;;;;;;0.75;0.75;;;;;25.63;48.65;101376.31;4973292;28;45665;-68
2022/08/01 01:00:19;;;;;;;;;1.00;1.00;;;;;25.33;49.22;101359.03;4988027;27;45816;-68
2022/08/01 01:02:44;;;;;;;;;1.00;1.00;;;;;25.14;49.59;101345.63;4993164;27;45908;-67
2022/08/01 01:05:10;;;;;;;;;0.50;0.50;;;;;25.22;49.48;101355.13;4992361;27;45690;-68
2022/08/01 01:08:13;;;;;;;;;1.50;0.00;;;;;25.23;49.45;101370.31;4993084;27;46262;-68
2022/08/01 01:10:42;;;;;;;;;0.25;0.25;;;;;25.17;49.55;101369.63;4985995;27;46350;-68
2022/08/01 01:13:20;;;;;;;;;0.50;0.50;;;;;25.12;49.70;101354.69;4992398;27;45477;-68
2022/08/01 01:15:54;;;;;;;;;0.00;0.00;;;;;25.24;48.88;101367.53;4975068;27;45446;-68
2022/08/01 01:18:24;;;;;;;;;0.00;0.00;;;;;25.35;49.18;101375.91;4991766;28;45378;-68
2022/08/01 01:21:16;;;;;;;;;0.00;0.00;;;;;25.41;48.45;101368.50;4992268;27;46164;-68
2022/08/01 01:24:00;;;;;;;;;0.50;0.50;;;;;25.46;48.46;101364.66;4984620;27;45363;-68
2022/08/01 01:26:31;;;;;;;;;1.00;1.00;;;;;25.51;48.55;101367.13;4993082;27;45665;-68
2022/08/01 01:29:20;;;;;;;;;0.00;0.00;;;;;25.53;48.48;101365.19;4993064;27;45480;-68
2022/08/01 01:31:55;;;;;;;;;0.00;0.00;;;;;25.56;48.00;101365.06;4985120;27;46241;-67
2022/08/01 01:34:23;;;;;;;;;0.25;0.00;;;;;25.58;47.84;101371.22;4988701;27;45291;-67
2022/08/01 01:36:52;;;;;;;;;0.00;0.00;;;;;25.50;48.23;101379.63;4997277;27;45387;-67
2022/08/01 01:39:19;;;;;;;;;1.00;1.00;;;;;25.49;48.40;101374.38;4976631;28;45484;-69
2022/08/01 01:41:48;;;;;;;;;1.00;0.00;;;;;25.52;48.12;101367.00;4981683;27;46591;-68
2022/08/01 01:44:15;;;;;;;;;0.50;0.50;;;;;25.57;48.30;101366.78;4972939;27;45681;-68
2022/08/01 01:46:42;;;;;;;;;0.00;0.00;;;;;25.31;49.00;101360.91;4972874;27;45640;-67
2022/08/01 01:49:10;;;;;;;;;1.00;1.00;;;;;25.19;48.94;101337.41;4973209;27;45513;-68
2022/08/01 01:51:38;;;;;;;;;0.00;0.00;;;;;25.30;48.67;101345.78;4972601;27;46499;-68
2022/08/01 01:54:05;;;;;;;;;0.00;0.00;;;;;25.32;48.31;101343.91;4971694;27;45343;-68
2022/08/01 01:56:31;;;;;;;;;0.00;0.00;;;;;25.48;48.48;101354.69;4973066;27;45463;-68
2022/08/01 01:59:01;;;;;;;;;0.00;0.00;;;;;25.53;48.72;101362.50;4973270;27;45442;-67
2022/08/01 02:01:31;;;;;;;;;0.75;0.75;;;;;25.50;48.60;101358.19;4972713;28;45896;-68
2022/08/01 02:03:58;;;;;;;;;0.25;0.25;;;;;25.38;48.28;101332.84;4973103;28;45371;-68
2022/08/01 02:06:26;;;;;;;;;0.75;0.75;;;;;25.36;48.45;101324.00;4972701;27;45414;-68
2022/08/01 02:08:54;;;;;;;;;0.00;0.00;;;;;25.50;48.39;101355.50;4976286;27;45406;-68
2022/08/01 02:11:21;;;;;;;;;0.00;0.00;;;;;25.50;48.32;101358.19;4991476;27;46021;-69
2022/08/01 02:13:58;;;;;;;;;0.50;0.50;;;;;25.38;48.35;101364.16;4974973;27;45490;-67
2022/08/01 02:16:28;;;;;;;;;0.00;0.00;;;;;25.30;49.10;101351.16;4972631;27;45858;-67
2022/08/01 02:18:54;;;;;;;;;0.00;0.00;;;;;25.20;48.93;101333.78;4972520;27;45611;-67
2022/08/01 02:21:29;;;;;;;;;1.00;0.25;;;;;25.29;48.99;101353.91;4972327;27;45696;-67
2022/08/01 02:24:00;;;;;;;;;0.00;0.00;;;;;25.18;49.07;101354.44;4972276;27;45359;-68
2022/08/01 02:26:28;;;;;;;;;0.00;0.00;;;;;25.16;49.27;101345.56;4979450;28;45545;-68
2022/08/01 02:28:59;;;;;;;;;1.00;0.25;;;;;25.25;49.23;101360.34;4988053;28;45394;-68
2022/08/01 02:31:28;;;;;;;;;1.00;1.00;;;;;25.15;49.49;101359.91;4985886;27;45761;-68
2022/08/01 02:34:04;;;;;;;;;0.75;0.75;;;;;25.09;48.65;101338.78;4984745;27;45220;-67
2022/08/01 02:36:33;;;;;;;;;0.00;0.00;;;;;25.29;49.44;101354.75;4993470;27;45321;-68
2022/08/01 02:39:06;;;;;;;;;1.00;1.00;;;;;25.31;49.08;101363.59;4992613;27;45503;-67
2022/08/01 02:41:37;;;;;;;;;0.75;0.00;;;;;25.30;48.94;101353.81;4991949;27;45935;-68
2022/08/01 02:44:06;;;;;;;;;2.00;0.00;;;;;25.16;49.22;101334.84;4991994;27;45347;-67
2022/08/01 02:46:38;;;;;;;;;0.25;0.25;;;;;25.24;49.53;101363.97;4995441;27;45569;-68
2022/08/01 02:49:08;;;;;;;;;0.00;0.00;;;;;25.30;48.96;101359.19;4992358;27;45340;-68
2022/08/01 02:51:36;;;;;;;;;1.00;1.00;;;;;25.25;48.75;101337.09;4991984;27;46295;-68
2022/08/01 02:54:04;;;;;;;;;0.50;0.50;;;;;25.43;49.05;101358.56;4992190;27;45416;-68
2022/08/01 02:56:35;;;;;;;;;0.25;0.25;;;;;25.33;48.99;101342.09;4991988;27;45329;-68
2022/08/01 02:59:25;;;;;;;;;0.00;0.00;;;;;25.26;49.54;101351.38;4992174;27;45575;-68
2022/08/01 03:01:53;;;;;;;;;0.75;0.50;;;;;25.24;49.34;101347.91;4991761;27;46608;-68
2022/08/01 03:04:21;;;;;;;;;1.00;1.00;;;;;25.31;49.71;101358.22;4992465;27;45625;-68
2022/08/01 03:06:48;;;;;;;;;0.00;0.00;;;;;25.35;49.17;101356.28;4992527;27;45501;-67
2022/08/01 03:09:15;;;;;;;;;0.00;0.00;;;;;25.36;49.00;101350.81;4992334;28;45512;-67
2022/08/01 03:11:44;;;;;;;;;1.75;0.25;;;;;25.39;48.49;101350.69;4991654;27;46564;-67
2022/08/01 03:14:12;;;;;;;;;0.00;0.00;;;;;25.39;48.76;101349.81;4991671;27;45820;-67
2022/08/01 03:16:39;;;;;;;;;0.00;0.00;;;;;25.41;48.63;101352.41;4991695;27;45675;-67
2022/08/01 03:19:14;;;;;;;;;0.00;0.00;;;;;25.25;48.55;101328.16;4979987;27;45427;-68
2022/08/01 03:21:42;;;;;;;;;1.00;1.00;;;;;25.33;48.50;101342.09;4969771;28;48173;-67
2022/08/01 03:24:11;;;;;;;;;0.75;0.75;;;;;25.40;48.46;101351.56;4984157;28;45363;-68
2022/08/01 03:26:38;;;;;;;;;0.00;0.00;;;;;25.44;48.04;101354.94;4978335;27;45384;-68
2022/08/01 03:29:06;;;;;;;;;0.00;0.00;;;;;25.43;48.70;101350.53;4995857;27;45362;-68
2022/08/01 03:31:38;;;;;;;;;1.00;1.00;;;;;25.45;48.83;101356.69;4987039;27;46026;-67
2022/08/01 03:34:05;;;;;;;;;2.00;1.00;;;;;25.41;48.58;101349.72;4983822;27;45652;-68
2022/08/01 03:36:33;;;;;;;;;0.00;0.00;;;;;25.47;48.89;101360.16;4978476;27;46144;-67
2022/08/01 03:39:03;;;;;;;;;0.25;0.25;;;;;25.43;48.52;101351.38;4978131;27;45861;-68
2022/08/01 03:41:34;;;;;;;;;1.00;1.00;;;;;25.36;48.24;101337.41;4974776;28;47719;-68
2022/08/01 03:44:07;;;;;;;;;0.50;0.50;;;;;25.44;48.37;101354.94;4983140;27;45414;-68
2022/08/01 03:46:40;;;;;;;;;1.00;0.75;;;;;25.34;48.86;101338.44;4990536;27;45849;-68
2022/08/01 03:49:11;;;;;;;;;0.50;0.50;;;;;25.51;48.53;101364.44;4991565;27;45632;-69
2022/08/01 03:51:38;;;;;;;;;1.00;1.00;;;;;25.44;48.56;101346.88;4974725;28;47482;-68
2022/08/01 03:54:05;;;;;;;;;0.00;0.00;;;;;25.48;48.41;101361.88;4993022;27;45343;-67
2022/08/01 03:56:32;;;;;;;;;0.50;0.50;;;;;25.46;48.26;101353.94;4991111;27;45617;-68
2022/08/01 03:59:00;;;;;;;;;1.00;1.00;;;;;25.51;48.26;101359.94;4991737;27;45674;-67
2022/08/01 04:01:26;;;;;;;;;1.50;1.00;;;;;25.45;48.64;101354.00;4994537;27;46173;-68
2022/08/01 04:03:52;;;;;;;;;1.00;0.25;;;;;25.37;48.89;101341.00;4995208;27;45391;-68
2022/08/01 04:06:18;;;;;;;;;1.00;1.00;;;;;25.46;48.18;101363.78;4993497;27;45536;-68
2022/08/01 04:08:55;;;;;;;;;1.00;1.00;;;;;25.03;48.95;101306.91;4989761;28;45441;-68
2022/08/01 04:11:21;;;;;;;;;1.25;0.75;;;;;25.22;49.05;101349.78;4990791;27;45755;-68
2022/08/01 04:13:48;;;;;;;;;1.00;1.00;;;;;25.24;48.96;101347.91;4991023;27;45442;-68
2022/08/01 04:16:14;;;;;;;;;0.00;0.00;;;;;25.25;49.10;101347.84;4995313;27;45302;-67
2022/08/01 04:18:39;;;;;;;;;1.00;1.00;;;;;25.30;48.61;101350.28;4994508;27;45427;-67
2022/08/01 04:21:05;;;;;;;;;1.00;1.00;;;;;25.33;48.58;101345.63;4991157;27;45671;-68
2022/08/01 04:23:32;;;;;;;;;0.25;0.25;;;;;25.22;49.06;101334.56;4990467;28;45493;-67
2022/08/01 04:26:00;;;;;;;;;1.00;1.00;;;;;25.26;48.84;101332.59;4991355;27;45522;-68
2022/08/01 04:28:27;;;;;;;;;0.00;0.00;;;;;25.32;49.23;101345.72;4990435;27;45602;-68
2022/08/01 04:30:55;;;;;;;;;0.00;0.00;;;;;25.25;49.07;101334.44;4991204;28;45543;-68
2022/08/01 04:33:22;;;;;;;;;2.00;1.00;;;;;25.23;48.78;101314.88;4977279;27;45362;-68
2022/08/01 04:35:49;;;;;;;;;0.00;0.00;;;;;25.25;49.10;101318.34;4990567;27;45524;-68
2022/08/01 04:38:20;;;;;;;;;0.00;0.00;;;;;25.20;49.53;101336.47;4990896;27;45623;-67
2022/08/01 04:40:46;;;;;;;;;1.00;1.00;;;;;25.09;49.69;101341.47;4990565;27;46712;-68
2022/08/01 04:43:12;;;;;;;;;1.00;0.75;;;;;24.92;49.74;101312.81;4990603;27;45351;-68
2022/08/01 04:45:38;;;;;;;;;0.00;0.00;;;;;25.09;49.52;101341.47;4993990;27;45484;-68
2022/08/01 04:48:09;;;;;;;;;0.00;0.00;;;;;25.15;49.88;101342.03;4990599;27;45657;-68
2022/08/01 04:50:36;;;;;;;;;1.00;1.00;;;;;25.20;49.26;101343.63;4981999;28;45770;-67
2022/08/01 04:53:02;;;;;;;;;1.00;1.00;;;;;25.23;49.57;101346.19;4969158;27;45383;-68
2022/08/01 04:55:28;;;;;;;;;0.00;0.00;;;;;25.23;49.84;101354.22;4971206;28;45485;-67
2022/08/01 04:57:54;;;;;;;;;1.00;1.00;;;;;25.22;49.82;101344.41;4970726;27;45687;-68
2022/08/01 05:00:20;;;;;;;;;0.75;0.75;;;;;25.11;50.03;101334.22;4973593;28;45667;-68
2022/08/01 05:02:46;;;;;;;;;0.00;0.00;;;;;25.20;50.10;101357.03;4977014;27;45782;-68
2022/08/01 05:05:12;;;;;;;;;0.25;0.25;;;;;25.18;50.20;101355.31;4977341;28;45562;-68
2022/08/01 05:07:38;;;;;;;;;1.00;1.00;;;;;25.22;49.98;101352.47;4970612;27;45442;-68
2022/08/01 05:10:04;;;;;;;;;1.00;1.00;;;;;25.13;50.13;101340.38;4988219;27;46545;-68
2022/08/01 05:12:31;;;;;;;;;2.00;1.00;;;;;25.19;50.31;101358.84;4982824;27;45599;-68
2022/08/01 05:14:58;;;;;;;;;1.00;1.00;;;;;25.10;50.19;101357.44;4977437;27;45473;-68
2022/08/01 05:17:23;;;;;;;;;2.25;1.25;;;;;25.15;50.51;101378.66;4972267;27;45563;-68
2022/08/01 05:19:49;;;;;;;;;1.00;1.00;;;;;25.12;51.01;101379.69;4971383;28;46314;-67
2022/08/01 05:22:14;;;;;;;;;0.50;0.50;;;;;25.08;50.54;101367.41;4969812;27;45533;-67
2022/08/01 05:24:43;;;;;;;;;0.50;0.50;;;;;25.13;50.88;101367.19;4970311;27;45426;-68
2022/08/01 05:27:09;;;;;;;;;1.00;1.00;;;;;25.13;51.03;101380.56;4970500;28;45409;-68
2022/08/01 05:29:35;;;;;;;;;0.25;0.25;;;;;25.04;51.09;101359.59;4972021;27;45558;-68
2022/08/01 05:32:00;;;;;;;;;2.00;1.00;;;;;25.15;50.42;101375.97;4971695;27;45388;-67
2022/08/01 05:34:26;;;;;;;;;1.00;1.00;;;;;25.03;50.96;101349.78;4961237;27;45489;-67
2022/08/01 05:36:53;;;;;;;;;2.00;2.00;;;;;25.10;50.58;101365.47;4985768;27;45394;-68
2022/08/01 05:39:18;;;;;;;;;1.75;1.75;;;;;25.20;50.64;101367.75;4971349;28;46861;-68
2022/08/01 05:41:44;;;;;;;;;1.00;1.00;;;;;25.22;50.36;101381.94;4973265;27;45408;-68
2022/08/01 05:44:09;;;;;;;;;1.00;1.00;;;;;25.23;50.01;101373.84;4973275;27;45469;-68
2022/08/01 05:46:36;;;;;;;;;1.00;1.00;;;;;25.27;50.41;101372.75;4974875;27;45608;-67
2022/08/01 05:49:03;;;;;;;;;0.75;0.75;;;;;25.30;50.28;101375.28;4982032;27;45729;-68
2022/08/01 05:51:29;;;;;;;;;1.00;1.00;;;;;25.32;49.73;101369.84;4972636;27;45544;-68
2022/08/01 05:53:56;;;;;;;;;0.25;0.25;;;;;25.38;50.15;101377.56;4976755;27;45640;-67
2022/08/01 05:56:21;;;;;;;;;2.00;0.00;;;;;25.42;49.91;101379.16;4973088;27;45563;-67
2022/08/01 05:58:50;;;;;;;;;1.50;1.50;;;;;25.34;50.00;101366.16;4972369;27;45401;-68
2022/08/01 06:01:16;;;;;;;;;1.00;1.00;;;;;25.46;49.27;101385.22;4954740;28;45330;-68
2022/08/01 06:03:42;;;;;;;;;1.00;1.00;;;;;25.45;49.38;101379.00;4972737;27;45450;-67
2022/08/01 06:06:07;;;;;;;;;1.00;1.00;;;;;25.46;49.04;101390.59;4973051;27;45393;-68
2022/08/01 06:08:33;;;;;;;;;1.50;1.50;;;;;25.46;49.03;101395.94;4972073;27;46071;-69
2022/08/01 06:10:59;;;;;;;;;1.00;1.00;;;;;25.48;49.23;101388.69;4972869;28;45364;-68
2022/08/01 06:13:25;;;;;;;;;1.50;1.50;;;;;25.46;49.23;101383.44;4972388;27;45530;-68
2022/08/01 06:15:50;;;;;;;;;2.00;2.00;;;;;25.38;49.54;101369.53;4974807;28;45394;-68
2022/08/01 06:18:16;;;;;;;;;0.50;0.50;;;;;25.35;49.64;101381.28;4984789;27;46471;-68
2022/08/01 06:20:42;;;;;;;;;2.00;1.00;;;;;25.27;49.78;101375.44;4972448;27;45466;-67
2022/08/01 06:23:08;;;;;;;;;0.50;0.50;;;;;25.31;49.73;101376.13;4972509;27;45402;-68
2022/08/01 06:25:34;;;;;;;;;1.00;1.00;;;;;25.38;49.53;101385.63;4972665;27;45375;-68
2022/08/01 06:28:00;;;;;;;;;0.75;0.75;;;;;25.30;49.36;101372.59;4972325;27;45603;-68
2022/08/01 06:30:26;;;;;;;;;1.25;1.25;;;;;25.42;49.06;101397.06;4974251;27;45540;-67
2022/08/01 06:32:52;;;;;;;;;1.00;1.00;;;;;25.39;49.32;101384.69;4978910;27;45536;-68
2022/08/01 06:35:18;;;;;;;;;0.50;0.50;;;;;25.46;49.05;101393.28;4992931;27;45426;-67
2022/08/01 06:37:44;;;;;;;;;1.00;1.00;;;;;25.48;49.30;101391.38;4992088;27;46134;-68
2022/08/01 06:40:11;;;;;;;;;1.50;1.50;;;;;25.39;48.93;101372.16;4992686;27;45582;-67
2022/08/01 06:42:39;;;;;;;;;3.00;3.00;;;;;25.54;49.16;101386.59;4994469;27;45580;-68
2022/08/01 06:45:06;;;;;;;;;2.00;1.00;;;;;25.57;48.48;101386.41;4991873;27;45599;-68
2022/08/01 06:47:32;;;;;;;;;4.00;1.25;;;;;25.63;48.81;101393.31;4991743;27;46266;-68
2022/08/01 06:49:58;;;;;;;;;1.00;1.00;;;;;25.63;48.98;101396.00;4991783;27;45393;-68
2022/08/01 06:52:24;;;;;;;;;1.00;1.00;;;;;25.60;48.90;101383.59;4991819;27;45393;-68
2022/08/01 06:54:50;;;;;;;;;1.75;1.75;;;;;25.48;48.87;101365.44;4993108;27;45305;-68
2022/08/01 06:57:16;;;;;;;;;1.25;1.25;;;;;25.55;48.49;101379.41;4995900;27;46354;-68
2022/08/01 06:59:41;;;;;;;;;1.00;1.00;;;;;25.60;48.82;101382.72;4972682;28;45398;-68
2022/08/01 07:02:07;;;;;;;;;0.00;0.00;;;;;25.69;48.12;101386.75;4971790;27;45464;-68
2022/08/01 07:04:33;;;;;;;;;1.00;1.00;;;;;25.74;48.56;101398.13;4972119;28;45531;-69
2022/08/01 07:06:59;;;;;;;;;1.00;1.00;;;;;25.54;48.26;101361.59;4974174;28;47140;-68
2022/08/01 07:09:26;;;;;;;;;1.00;1.00;;;;;25.89;48.33;101386.63;4975563;27;45346;-67
2022/08/01 07:11:52;;;;;;;;;1.25;1.25;;;;;25.98;47.98;101380.78;4971656;27;45454;-68
2022/08/01 07:14:18;;;;;;;;;1.00;1.00;;;;;26.05;47.78;101392.06;4971939;27;45783;-67
2022/08/01 07:16:45;;;;;;;;;2.00;2.00;;;;;26.02;47.52;101392.22;4971641;27;45368;-67
2022/08/01 07:19:10;;;;;;;;;1.00;1.00;;;;;25.96;47.76;101379.09;5025705;28;45363;-68
2022/08/01 07:21:36;;;;;;;;;4.00;1.50;;;;;26.01;47.81;101390.50;4972048;27;45300;-69
2022/08/01 07:24:01;;;;;;;;;1.00;1.00;;;;;26.05;47.83;101380.47;4971911;27;45747;-69
2022/08/01 07:26:27;;;;;;;;;1.00;1.00;;;;;26.06;47.48;101395.63;4973437;27;45999;-67
2022/08/01 07:28:53;;;;;;;;;1.00;1.00;;;;;26.05;47.42;101389.38;4976104;27;45563;-67
2022/08/01 07:31:19;;;;;;;;;1.00;1.00;;;;;26.09;47.87;101396.31;4973430;27;45426;-68
2022/08/01 07:33:44;;;;;;;;;1.25;1.25;;;;;26.08;47.51;101383.84;4981449;27;45397;-67
2022/08/01 07:36:10;;;;;;;;;1.00;1.00;;;;;26.20;47.13;101401.13;4991126;27;46234;-68
2022/08/01 07:38:36;;;;;;;;;2.00;1.00;;;;;26.17;47.09;101394.13;4991289;27;45362;-67
2022/08/01 07:41:02;;;;;;;;;1.00;1.00;;;;;26.18;47.19;101398.53;4975445;27;45443;-67
2022/08/01 07:43:28;;;;;;;;;2.00;0.25;;;;;26.17;47.18;101403.97;4995680;27;45361;-68
2022/08/01 07:45:53;;;;;;;;;1.00;1.00;;;;;26.13;47.59;101400.59;4995722;27;46131;-67
2022/08/01 07:48:21;;;;;;;;;1.00;1.00;;;;;26.08;47.40;101396.38;4995692;27;45395;-69
2022/08/01 07:50:46;;;;;;;;;2.00;2.00;;;;;26.09;47.27;101416.94;4995028;28;45540;-68
2022/08/01 07:53:12;;;;;;;;;1.00;1.00;;;;;26.05;47.68;101416.22;4980880;27;45331;-68
2022/08/01 07:55:37;;;;;;;;;1.25;1.25;;;;;26.06;47.67;101422.47;4971136;28;46204;-67
2022/08/01 07:58:03;;;;;;;;;1.75;1.75;;;;;25.93;47.23;101396.25;4971108;27;45450;-68
2022/08/01 08:00:28;;;;;;;;;1.00;1.00;;;;;25.98;47.60;101430.91;4978000;27;45453;-67
2022/08/01 08:02:58;;;;;;;;;1.00;1.00;;;;;25.87;47.92;101412.69;4974701;27;45492;-67
2022/08/01 08:05:24;;;;;;;;;1.00;1.00;;;;;25.94;47.92;101418.59;4973555;28;46044;-65
2022/08/01 08:07:49;;;;;;;;;1.00;1.00;;;;;26.05;47.26;101416.22;4981796;27;45672;-67
2022/08/01 08:10:15;;;;;;;;;1.00;1.00;;;;;26.08;47.54;101415.19;4979309;27;45543;-68
2022/08/01 08:12:40;;;;;;;;;1.00;1.00;;;;;26.17;47.45;101425.44;4973023;27;45370;-66
2022/08/01 08:15:06;;;;;;;;;1.00;1.00;;;;;26.18;47.45;101417.31;4970690;27;45493;-67
2022/08/01 08:17:33;;;;;;;;;2.50;1.50;;;;;26.31;46.96;101428.25;4971242;28;45815;-66
2022/08/01 08:19:59;;;;;;;;;1.00;1.00;;;;;26.38;46.53;101412.69;4971514;28;45442;-67
2022/08/01 08:22:25;;;;;;;;;2.00;2.00;;;;;26.51;46.14;101424.53;4971075;27;45600;-67
2022/08/01 08:24:51;;;;;;;;;2.00;2.00;;;;;26.61;45.95;101425.78;4970812;28;45988;-67
2022/08/01 08:27:17;;;;;;;;;2.00;2.00;;;;;26.49;46.04;101388.81;4984066;27;45461;-66
2022/08/01 08:29:42;;;;;;;;;2.25;2.25;;;;;26.56;45.65;101384.88;4970754;28;45451;-66
2022/08/01 08:32:08;;;;;;;;;3.00;2.25;;;;;26.78;45.56;101415.94;4971108;27;45761;-66
2022/08/01 08:34:34;;;;;;;;;3.00;3.00;;;;;26.90;45.60;101414.38;4986775;27;45619;-67
2022/08/01 08:36:59;;;;;;;;;2.75;2.75;;;;;26.88;45.89;101427.91;4991169;28;46016;-67
2022/08/01 08:39:29;;;;;;;;;3.50;3.00;;;;;26.59;45.76;101395.44;4992504;27;45405;-67
2022/08/01 08:41:57;;;;;;;;;3.25;3.25;;;;;26.74;45.91;101423.31;4987964;27;45575;-65
2022/08/01 08:44:23;;;;;;;;;4.50;3.00;;;;;26.78;45.35;101397.97;4970141;27;46175;-67
2022/08/01 08:46:51;;;;;;;;;3.25;3.00;;;;;26.93;45.42;101409.69;5032761;27;45408;-67
2022/08/01 08:49:23;;;;;;;;;2.25;2.25;;;;;26.84;45.49;101399.47;4988975;27;45442;-68
2022/08/01 08:51:51;;;;;;;;;4.00;4.00;;;;;26.93;45.82;101401.63;4991404;27;45720;-68
2022/08/01 08:54:21;;;;;;;;;4.75;4.75;;;;;27.08;44.66;101405.28;4975186;28;46156;-66
2022/08/01 08:56:48;;;;;;;;;4.25;3.00;;;;;27.27;44.22;101383.63;5006729;27;45720;-67
2022/08/01 08:59:17;;;;;;;;;2.00;2.00;;;;;27.74;43.57;101389.84;4981372;27;45430;-67
2022/08/01 09:01:47;;;;;;;;;5.00;4.00;;;;;27.87;42.44;101370.22;4964684;28;45782;-66
2022/08/01 09:04:13;;;;;;;;;2.00;2.00;;;;;27.84;42.13;101370.41;4973844;27;47812;-67
2022/08/01 09:06:40;;;;;;;;;1.50;1.50;;;;;27.73;41.63;101391.66;4969835;28;45682;-67
2022/08/01 09:09:07;;;;;;;;;0.50;0.25;;;;;27.54;42.66;101399.09;4978171;28;45320;-67
2022/08/01 09:11:37;;;;;;;;;2.00;1.00;;;;;27.35;43.20;101404.69;4986433;27;45275;-69
2022/08/01 09:14:11;;;;;;;;;3.75;2.00;;;;;27.48;42.87;101393.13;4974700;28;46113;-67
2022/08/01 09:16:40;;;;;;;;;2.00;1.00;;;;;27.51;42.88;101394.78;4974426;28;45601;-67
2022/08/01 09:19:15;;;;;;;;;1.25;1.25;;;;;27.46;42.87;101397.72;4980887;27;45588;-67
2022/08/01 09:22:01;;;;;;;;;2.00;2.00;;;;;27.43;42.90;101414.06;4971192;27;45384;-67
2022/08/01 09:24:29;;;;;;;;;2.00;2.00;;;;;27.34;43.05;101414.59;4969905;27;46918;-67
2022/08/01 09:26:55;;;;;;;;;2.25;2.25;;;;;27.30;43.12;101420.25;4989155;27;45422;-66
2022/08/01 09:29:24;;;;;;;;;1.75;1.75;;;;;27.21;43.13;101418.94;4974343;27;45445;-67
2022/08/01 09:31:51;;;;;;;;;2.00;1.00;;;;;27.05;43.37;101409.03;4973236;28;45505;-67
2022/08/01 09:34:25;;;;;;;;;2.50;2.00;;;;;27.08;43.87;101413.38;4989544;27;45612;-71
2022/08/01 09:36:56;;;;;;;;;1.25;1.25;;;;;27.02;44.01;101414.56;4997194;27;45612;-68
2022/08/01 09:39:26;;;;;;;;;2.00;2.00;;;;;26.93;43.95;101415.06;4997301;27;45330;-67
2022/08/01 09:41:56;;;;;;;;;4.00;2.50;;;;;26.77;44.12;101408.84;4995679;27;45367;-68
2022/08/01 09:44:42;;;;;;;;;3.00;3.00;;;;;26.69;44.25;101409.25;4992227;27;45464;-68
2022/08/01 09:47:08;;;;;;;;;2.00;2.00;;;;;26.64;44.68;101414.88;4995904;27;45615;-66
2022/08/01 09:49:39;;;;;;;;;3.75;3.00;;;;;26.54;44.76;101413.63;4982993;27;45603;-69
2022/08/01 09:52:17;;;;;;;;;3.00;3.00;;;;;26.41;45.68;101409.84;4945099;28;45550;-68
2022/08/01 09:54:51;;;;;;;;;3.00;3.00;;;;;26.26;45.19;101408.00;4986755;27;45701;-68
2022/08/01 09:57:19;;;;;;;;;2.00;2.00;;;;;26.21;45.59;101411.78;4995649;27;45258;-68
2022/08/01 09:59:48;;;;;;;;;2.25;2.00;;;;;26.36;45.26;101426.22;4992814;27;45579;-68
2022/08/01 10:02:39;;;;;;;;;1.50;1.50;;;;;26.41;45.61;101428.63;4975057;27;45646;-68
2022/08/01 10:05:08;;;;;;;;;2.25;2.25;;;;;26.72;44.89;101411.78;4992178;27;45549;-70
2022/08/01 10:07:35;;;;;;;;;3.75;2.50;;;;;27.21;44.49;101409.03;4992677;27;45445;-69
2022/08/01 10:10:13;;;;;;;;;2.00;2.00;;;;;27.88;42.83;101408.75;4992414;27;45484;-69
2022/08/01 10:12:40;;;;;;;;;3.00;2.75;;;;;28.16;42.52;101415.16;4980156;27;45515;-69
2022/08/01 10:15:07;;;;;;;;;3.00;3.00;;;;;28.10;42.42;101405.66;4994200;27;46502;-69
2022/08/01 10:17:37;;;;;;;;;3.00;3.00;;;;;27.96;42.71;101414.56;4981256;27;45351;-68
2022/08/01 10:20:03;;;;;;;;;2.75;2.75;;;;;28.10;42.05;101402.97;4979433;27;45339;-68
2022/08/01 10:22:30;;;;;;;;;2.00;2.00;;;;;28.29;42.07;101408.94;4992946;27;45331;-68
2022/08/01 10:25:01;;;;;;;;;1.75;1.75;;;;;28.45;41.65;101408.84;4985296;27;46070;-69
2022/08/01 10:27:29;;;;;;;;;2.00;2.00;;;;;28.62;40.74;101424.00;4991026;27;45317;-69
2022/08/01 10:29:57;;;;;;;;;2.00;2.00;;;;;28.61;41.27;101422.25;4979980;27;45563;-68
2022/08/01 10:32:23;;;;;;;;;2.75;2.75;;;;;28.80;41.06;101421.94;4972894;28;45508;-69
2022/08/01 10:34:54;;;;;;;;;4.00;4.00;;;;;28.89;39.52;101402.47;5056028;27;47004;-68
2022/08/01 10:37:21;;;;;;;;;3.50;2.25;;;;;28.78;40.13;101386.13;4972512;27;45434;-68
2022/08/01 10:39:46;;;;;;;;;1.75;1.75;;;;;29.08;39.83;101404.88;4976421;28;45514;-69
2022/08/01 10:42:12;;;;;;;;;3.00;3.00;;;;;29.23;39.73;101412.94;5047103;27;45628;-69
2022/08/01 10:44:39;;;;;;;;;3.25;3.25;;;;;29.27;39.52;101412.63;4990599;27;45483;-68
2022/08/01 10:47:11;;;;;;;;;2.20;2.20;;;;;29.13;39.23;101397.34;4989329;27;45334;-68
2022/08/01 10:49:47;;;;;;;;;3.00;3.00;;;;;28.94;39.91;101412.97;4989972;27;45461;-69
2022/08/01 10:52:19;;;;;;;;;3.00;1.50;;;;;28.75;40.39;101411.44;4992650;27;45328;-68
2022/08/01 10:54:46;;;;;;;;;3.00;3.00;;;;;28.61;40.59;101416.84;4990944;27;46689;-69
2022/08/01 10:57:12;;;;;;;;;2.20;2.20;;;;;28.43;40.61;101401.84;4982850;27;45490;-68
2022/08/01 10:59:49;;;;;;;;;6.75;6.75;;;;;28.13;41.92;101409.00;4993454;27;45492;-68
2022/08/01 11:02:29;;;;;;;;;5.00;4.00;;;;;27.87;42.48;101409.72;4990116;27;45450;-67
2022/08/01 11:05:00;;;;;;;;;3.00;3.00;;;;;28.05;41.98;101407.75;4991242;27;46221;-68
2022/08/01 11:07:54;;;;;;;;;3.00;3.00;;;;;28.43;41.26;101407.22;4975241;27;45534;-69
2022/08/01 11:10:37;;;;;;;;;3.75;3.75;;;;;28.70;40.61;101380.38;4954623;27;45542;-67
2022/08/01 11:13:07;;;;;;;;;6.00;3.00;;;;;28.98;40.09;101410.97;4973428;28;45587;-70
2022/08/01 11:15:34;;;;;;;;;3.00;3.00;;;;;29.02;40.31;101407.06;4955615;28;48286;-68
2022/08/01 11:18:06;;;;;;;;;3.60;2.80;;;;;28.92;40.03;101375.31;4971318;27;45727;-67
2022/08/01 11:20:35;;;;;;;;;3.00;3.00;;;;;29.23;39.40;101411.09;4972603;27;45371;-67
2022/08/01 11:23:01;;;;;;;;;3.50;2.25;;;;;29.25;39.20;101409.16;4972756;28;45694;-70
2022/08/01 11:25:36;;;;;;;;;3.50;3.00;;;;;29.21;39.79;101409.47;4972086;28;45834;-68
2022/08/01 11:28:13;;;;;;;;;5.50;5.50;;;;;29.10;39.20;101405.66;4954309;27;45447;-68
2022/08/01 11:30:45;;;;;;;;;5.00;4.00;;;;;29.01;39.99;101400.81;4970533;27;45529;-69